createdAt,value
2019-04-01T00:02:14.859Z,100268.92
2019-04-01T00:12:20.199Z,100278.34
2019-04-01T00:22:25.450Z,100295.39
2019-04-01T00:32:30.757Z,100304.83
2019-04-01T00:42:37.961Z,100307.11
2019-04-01T00:52:43.499Z,100318.30
2019-04-01T01:02:48.858Z,100322.27
2019-04-01T01:12:54.321Z,100323.38
2019-04-01T01:23:00.019Z,100336.55
2019-04-01T01:33:05.379Z,100332.03
2019-04-01T01:43:10.947Z,100349.19
2019-04-01T01:53:16.201Z,100347.66
2019-04-01T02:03:21.440Z,100355.42
2019-04-01T02:13:26.803Z,100361.22
2019-04-01T02:23:31.910Z,100373.53
2019-04-01T02:33:37.346Z,100379.02
2019-04-01T02:43:42.522Z,100392.09
2019-04-01T02:53:47.785Z,100400.98
2019-04-01T03:03:53.017Z,100410.38
2019-04-01T03:13:58.395Z,100410.77
2019-04-01T03:24:03.547Z,100418.19
2019-04-01T03:34:08.989Z,100426.08
2019-04-01T03:44:14.233Z,100419.38
2019-04-01T03:54:19.433Z,100433.43
2019-04-01T04:04:24.592Z,100425.34
2019-04-01T04:14:29.934Z,100431.88
2019-04-01T04:24:35.234Z,100437.91
2019-04-01T04:34:40.441Z,100449.92
2019-04-01T04:44:45.693Z,100470.17
2019-04-01T04:54:51.029Z,100485.84
2019-04-01T05:04:56.239Z,100497.44
2019-04-01T05:15:01.479Z,100507.35
2019-04-01T05:25:07.015Z,100514.75
2019-04-01T05:35:13.438Z,100519.92
2019-04-01T05:45:18.519Z,100517.66
2019-04-01T05:55:23.831Z,100521.39
2019-04-01T06:05:29.220Z,100522.86
2019-04-01T06:15:35.119Z,100527.32
2019-04-01T06:25:40.318Z,100547.25
2019-04-01T06:35:46.075Z,100552.95
2019-04-01T06:45:51.289Z,100564.55
2019-04-01T06:55:56.565Z,100572.56
2019-04-01T07:06:02.600Z,100585.95
2019-04-01T07:16:15.226Z,100580.67
2019-04-01T07:26:15.134Z,100574.27
2019-04-01T07:36:20.599Z,100576.30
2019-04-01T07:46:26.158Z,100585.34
2019-04-01T07:56:31.479Z,100602.41
2019-04-01T08:06:37.178Z,100598.05
2019-04-01T08:16:42.779Z,100615.91
2019-04-01T08:26:48.399Z,100614.36
2019-04-01T08:36:53.717Z,100622.16
2019-04-01T08:46:59.197Z,100616.78
2019-04-01T08:57:05.863Z,100621.06
2019-04-01T09:07:11.259Z,100622.59
2019-04-01T09:17:16.961Z,100624.65
2019-04-01T09:27:22.886Z,100626.28
2019-04-01T09:37:28.689Z,100614.32
2019-04-01T09:47:34.397Z,100606.75
2019-04-01T09:57:39.672Z,100614.07
2019-04-01T10:07:45.603Z,100603.62
2019-04-01T10:17:51.299Z,100604.16
2019-04-01T10:27:56.843Z,100581.59
2019-04-01T10:38:02.290Z,100588.95
2019-04-01T10:48:07.889Z,100600.58
2019-04-01T10:58:13.361Z,100576.81
2019-04-01T11:08:19.080Z,100571.71
2019-04-01T11:18:24.509Z,100568.09
2019-04-01T11:28:30.017Z,100569.81
2019-04-01T11:38:35.342Z,100556.34
2019-04-01T11:48:42.189Z,100556.57
2019-04-01T11:58:47.561Z,100554.47
2019-04-01T12:08:53.100Z,100540.82
2019-04-01T12:18:58.521Z,100533.16
2019-04-01T12:29:03.923Z,100529.63
2019-04-01T12:39:09.554Z,100517.44
2019-04-01T12:49:15.538Z,100514.48
2019-04-01T12:59:20.839Z,100507.13
2019-04-01T13:09:26.182Z,100487.47
2019-04-01T13:19:32.038Z,100487.59
2019-04-01T13:29:37.567Z,100463.91
2019-04-01T13:39:43.200Z,100458.86
2019-04-01T13:49:48.819Z,100429.72
2019-04-01T13:59:54.201Z,100437.66
2019-04-01T14:09:59.879Z,100424.84
2019-04-01T14:20:06.700Z,100418.23
2019-04-01T14:30:12.401Z,100398.04
2019-04-01T14:40:18.704Z,100389.21
2019-04-01T14:50:24.601Z,100382.14
2019-04-01T15:00:30.174Z,100367.99
2019-04-01T15:10:35.849Z,100370.33
2019-04-01T15:20:41.329Z,100364.41
2019-04-01T15:30:47.170Z,100359.31
2019-04-01T15:40:53.298Z,100350.39
2019-04-01T15:50:59.052Z,100356.55
2019-04-01T16:01:06.093Z,100353.60
2019-04-01T16:11:12.050Z,100356.70
2019-04-01T16:21:17.810Z,100361.58
2019-04-01T16:31:23.421Z,100355.97
2019-04-01T16:41:29.250Z,100340.70
2019-04-01T16:51:35.291Z,100341.59
2019-04-01T17:01:41.770Z,100341.59
2019-04-01T17:11:47.666Z,100357.67
2019-04-01T17:21:53.735Z,100352.83
2019-04-01T17:31:59.650Z,100359.21
2019-04-01T17:42:06.180Z,100366.05
2019-04-01T17:52:12.290Z,100372.03
2019-04-01T18:02:29.191Z,100392.66
2019-04-01T18:12:34.967Z,100396.42
2019-04-01T18:22:40.855Z,100405.83
2019-04-01T18:32:46.729Z,100406.91
2019-04-01T18:42:53.488Z,100421.84
2019-04-01T18:52:59.566Z,100421.56
2019-04-01T19:03:05.731Z,100432.95
2019-04-01T19:13:12.748Z,100432.33
2019-04-01T19:23:19.128Z,100436.39
2019-04-01T19:33:25.171Z,100434.37
2019-04-01T19:43:32.337Z,100428.62
2019-04-01T19:53:38.310Z,100441.96
2019-04-01T20:03:44.161Z,100448.75
2019-04-01T20:13:50.166Z,100450.47
2019-04-01T20:23:55.935Z,100449.64
2019-04-01T20:34:04.349Z,100456.48
2019-04-01T20:44:09.717Z,100454.56
2019-04-01T20:54:16.155Z,100447.25
2019-04-01T21:04:22.086Z,100443.20
2019-04-01T21:14:27.559Z,100436.67
2019-04-01T21:24:33.151Z,100440.27
2019-04-01T21:34:40.243Z,100434.14
2019-04-01T21:44:46.958Z,100426.13
2019-04-01T21:54:52.533Z,100426.50
2019-04-01T22:04:57.744Z,100421.65
2019-04-01T22:15:03.092Z,100408.23
2019-04-01T22:25:08.984Z,100402.35
2019-04-01T22:35:14.583Z,100403.65
2019-04-01T22:45:20.604Z,100390.16
2019-04-01T22:55:28.079Z,100387.83
2019-04-01T23:05:33.554Z,100377.29
2019-04-01T23:15:38.864Z,100372.66
2019-04-01T23:25:44.084Z,100369.30
2019-04-01T23:35:49.483Z,100365.65
2019-04-01T23:45:54.752Z,100362.23
2019-04-01T23:56:00.165Z,100360.10
